sensor_id;sensor_type;location;lat;lon;timestamp;temperature;humidity
31133;DHT22;17779;50.942;4.026;2022-11-14T00:00:27;5.90;99.90
31133;DHT22;17779;50.942;4.026;2022-11-14T00:02:52;6.00;99.90
31133;DHT22;17779;50.942;4.026;2022-11-14T00:05:18;6.00;99.90
31133;DHT22;17779;50.942;4.026;2022-11-14T00:07:45;6.20;99.90
31133;DHT22;17779;50.942;4.026;2022-11-14T00:10:12;6.30;99.90
31133;DHT22;17779;50.942;4.026;2022-11-14T00:12:38;6.40;99.90
31133;DHT22;17779;50.942;4.026;2022-11-14T00:15:04;6.30;99.90
31133;DHT22;17779;50.942;4.026;2022-11-14T00:17:30;6.40;99.90
31133;DHT22;17779;50.942;4.026;2022-11-14T00:19:55;6.50;99.90
31133;DHT22;17779;50.942;4.026;2022-11-14T00:22:21;6.50;99.90
31133;DHT22;17779;50.942;4.026;2022-11-14T00:24:47;6.40;99.90
31133;DHT22;17779;50.942;4.026;2022-11-14T00:27:13;6.30;99.90
31133;DHT22;17779;50.942;4.026;2022-11-14T00:29:39;6.30;99.90
31133;DHT22;17779;50.942;4.026;2022-11-14T00:32:05;6.20;99.90
31133;DHT22;17779;50.942;4.026;2022-11-14T00:34:31;6.30;99.90
31133;DHT22;17779;50.942;4.026;2022-11-14T00:36:56;6.20;99.90
31133;DHT22;17779;50.942;4.026;2022-11-14T00:39:22;6.30;99.90
31133;DHT22;17779;50.942;4.026;2022-11-14T00:41:47;6.30;99.90
31133;DHT22;17779;50.942;4.026;2022-11-14T00:44:13;6.30;99.90
31133;DHT22;17779;50.942;4.026;2022-11-14T00:46:38;6.10;99.90
31133;DHT22;17779;50.942;4.026;2022-11-14T00:49:04;5.90;99.90
31133;DHT22;17779;50.942;4.026;2022-11-14T00:51:30;5.90;99.90
31133;DHT22;17779;50.942;4.026;2022-11-14T00:53:56;6.00;99.90
31133;DHT22;17779;50.942;4.026;2022-11-14T00:56:21;5.80;99.90
31133;DHT22;17779;50.942;4.026;2022-11-14T00:58:47;5.70;99.90
31133;DHT22;17779;50.942;4.026;2022-11-14T01:01:13;5.50;99.90
31133;DHT22;17779;50.942;4.026;2022-11-14T01:03:39;5.50;99.90
31133;DHT22;17779;50.942;4.026;2022-11-14T01:06:05;5.50;99.90
31133;DHT22;17779;50.942;4.026;2022-11-14T01:08:31;5.40;99.90
31133;DHT22;17779;50.942;4.026;2022-11-14T01:10:57;5.40;99.90
31133;DHT22;17779;50.942;4.026;2022-11-14T01:13:24;5.40;99.90
31133;DHT22;17779;50.942;4.026;2022-11-14T01:15:51;5.30;99.90
31133;DHT22;17779;50.942;4.026;2022-11-14T01:18:18;5.40;99.90
31133;DHT22;17779;50.942;4.026;2022-11-14T01:20:45;5.50;99.90
31133;DHT22;17779;50.942;4.026;2022-11-14T01:23:12;5.50;99.90
31133;DHT22;17779;50.942;4.026;2022-11-14T01:25:38;5.50;99.90
31133;DHT22;17779;50.942;4.026;2022-11-14T01:28:05;5.30;99.90
31133;DHT22;17779;50.942;4.026;2022-11-14T01:30:32;5.30;99.90
31133;DHT22;17779;50.942;4.026;2022-11-14T01:32:57;5.10;99.90
31133;DHT22;17779;50.942;4.026;2022-11-14T01:35:23;5.10;99.90
31133;DHT22;17779;50.942;4.026;2022-11-14T01:37:49;5.10;99.90
31133;DHT22;17779;50.942;4.026;2022-11-14T01:40:15;5.20;99.90
31133;DHT22;17779;50.942;4.026;2022-11-14T01:42:40;5.00;99.90
31133;DHT22;17779;50.942;4.026;2022-11-14T01:47:51;5.10;99.90
31133;DHT22;17779;50.942;4.026;2022-11-14T01:50:16;5.00;99.90
31133;DHT22;17779;50.942;4.026;2022-11-14T01:52:42;5.10;99.90
31133;DHT22;17779;50.942;4.026;2022-11-14T01:55:08;5.20;99.90
31133;DHT22;17779;50.942;4.026;2022-11-14T01:57:35;5.40;99.90
31133;DHT22;17779;50.942;4.026;2022-11-14T02:00:06;5.50;99.90
31133;DHT22;17779;50.942;4.026;2022-11-14T02:02:32;5.50;99.90
31133;DHT22;17779;50.942;4.026;2022-11-14T02:04:59;5.20;99.90
31133;DHT22;17779;50.942;4.026;2022-11-14T02:07:27;5.10;99.90
31133;DHT22;17779;50.942;4.026;2022-11-14T02:09:56;5.20;99.90
31133;DHT22;17779;50.942;4.026;2022-11-14T02:12:24;5.30;99.90
31133;DHT22;17779;50.942;4.026;2022-11-14T02:14:51;5.10;99.90
31133;DHT22;17779;50.942;4.026;2022-11-14T02:17:18;5.20;99.90
31133;DHT22;17779;50.942;4.026;2022-11-14T02:22:11;5.00;99.90
31133;DHT22;17779;50.942;4.026;2022-11-14T02:24:36;4.90;99.90
31133;DHT22;17779;50.942;4.026;2022-11-14T02:27:05;4.80;99.90
31133;DHT22;17779;50.942;4.026;2022-11-14T02:29:32;4.80;99.90
31133;DHT22;17779;50.942;4.026;2022-11-14T02:31:58;4.90;99.90
31133;DHT22;17779;50.942;4.026;2022-11-14T02:34:24;4.90;99.90
31133;DHT22;17779;50.942;4.026;2022-11-14T02:36:49;4.90;99.90
31133;DHT22;17779;50.942;4.026;2022-11-14T02:39:15;5.00;99.90
31133;DHT22;17779;50.942;4.026;2022-11-14T02:41:41;5.00;99.90
31133;DHT22;17779;50.942;4.026;2022-11-14T02:44:07;5.00;99.90
31133;DHT22;17779;50.942;4.026;2022-11-14T02:46:32;5.10;99.90
31133;DHT22;17779;50.942;4.026;2022-11-14T02:48:58;5.10;99.90
31133;DHT22;17779;50.942;4.026;2022-11-14T02:51:24;5.10;99.90
31133;DHT22;17779;50.942;4.026;2022-11-14T02:53:49;5.20;99.90
31133;DHT22;17779;50.942;4.026;2022-11-14T02:56:15;5.30;99.90
31133;DHT22;17779;50.942;4.026;2022-11-14T02:58:41;5.30;99.90
31133;DHT22;17779;50.942;4.026;2022-11-14T03:01:06;5.30;99.90
31133;DHT22;17779;50.942;4.026;2022-11-14T03:03:32;5.40;99.90
31133;DHT22;17779;50.942;4.026;2022-11-14T03:05:58;5.40;99.90
31133;DHT22;17779;50.942;4.026;2022-11-14T03:08:25;5.60;99.90
31133;DHT22;17779;50.942;4.026;2022-11-14T03:10:51;5.70;99.90
31133;DHT22;17779;50.942;4.026;2022-11-14T03:13:17;5.70;99.90
31133;DHT22;17779;50.942;4.026;2022-11-14T03:15:44;5.60;99.90
31133;DHT22;17779;50.942;4.026;2022-11-14T03:18:09;5.30;99.90
31133;DHT22;17779;50.942;4.026;2022-11-14T03:20:36;5.20;99.90
31133;DHT22;17779;50.942;4.026;2022-11-14T03:23:02;5.20;99.90
31133;DHT22;17779;50.942;4.026;2022-11-14T03:25:28;5.20;99.90
31133;DHT22;17779;50.942;4.026;2022-11-14T03:27:53;5.10;99.90
31133;DHT22;17779;50.942;4.026;2022-11-14T03:30:19;5.10;99.90
31133;DHT22;17779;50.942;4.026;2022-11-14T03:32:45;5.10;99.90
31133;DHT22;17779;50.942;4.026;2022-11-14T03:35:11;4.90;99.90
31133;DHT22;17779;50.942;4.026;2022-11-14T03:37:37;4.80;99.90
31133;DHT22;17779;50.942;4.026;2022-11-14T03:40:03;4.70;99.90
31133;DHT22;17779;50.942;4.026;2022-11-14T03:42:31;4.60;99.90
31133;DHT22;17779;50.942;4.026;2022-11-14T03:44:57;4.50;99.90
31133;DHT22;17779;50.942;4.026;2022-11-14T03:47:23;4.50;99.90
31133;DHT22;17779;50.942;4.026;2022-11-14T03:49:49;4.50;99.90
31133;DHT22;17779;50.942;4.026;2022-11-14T03:52:15;4.50;99.90
31133;DHT22;17779;50.942;4.026;2022-11-14T03:54:40;4.40;99.90
31133;DHT22;17779;50.942;4.026;2022-11-14T03:57:06;4.50;99.90
31133;DHT22;17779;50.942;4.026;2022-11-14T03:59:32;4.60;99.90
31133;DHT22;17779;50.942;4.026;2022-11-14T04:01:58;4.50;99.90
31133;DHT22;17779;50.942;4.026;2022-11-14T04:04:23;4.50;99.90
31133;DHT22;17779;50.942;4.026;2022-11-14T04:06:49;4.60;99.90
31133;DHT22;17779;50.942;4.026;2022-11-14T04:09:15;4.70;99.90
31133;DHT22;17779;50.942;4.026;2022-11-14T04:11:41;4.70;99.90
31133;DHT22;17779;50.942;4.026;2022-11-14T04:14:06;4.80;99.90
31133;DHT22;17779;50.942;4.026;2022-11-14T04:16:32;5.00;99.90
31133;DHT22;17779;50.942;4.026;2022-11-14T04:18:58;5.10;99.90
31133;DHT22;17779;50.942;4.026;2022-11-14T04:21:24;4.90;99.90
31133;DHT22;17779;50.942;4.026;2022-11-14T04:23:49;4.60;99.90
31133;DHT22;17779;50.942;4.026;2022-11-14T04:26:15;4.40;99.90
31133;DHT22;17779;50.942;4.026;2022-11-14T04:28:41;4.30;99.90
31133;DHT22;17779;50.942;4.026;2022-11-14T04:31:07;4.30;99.90
31133;DHT22;17779;50.942;4.026;2022-11-14T04:33:32;4.20;99.90
31133;DHT22;17779;50.942;4.026;2022-11-14T04:35:58;4.30;99.90
31133;DHT22;17779;50.942;4.026;2022-11-14T04:38:24;4.20;99.90
31133;DHT22;17779;50.942;4.026;2022-11-14T04:40:50;4.20;99.90
31133;DHT22;17779;50.942;4.026;2022-11-14T04:43:16;4.20;99.90
31133;DHT22;17779;50.942;4.026;2022-11-14T04:45:42;4.10;99.90
31133;DHT22;17779;50.942;4.026;2022-11-14T04:48:08;4.10;99.90
31133;DHT22;17779;50.942;4.026;2022-11-14T04:50:34;4.00;99.90
31133;DHT22;17779;50.942;4.026;2022-11-14T04:52:59;4.00;99.90
31133;DHT22;17779;50.942;4.026;2022-11-14T04:55:25;4.10;99.90
31133;DHT22;17779;50.942;4.026;2022-11-14T04:57:54;4.30;99.90
31133;DHT22;17779;50.942;4.026;2022-11-14T05:00:20;4.20;99.90
31133;DHT22;17779;50.942;4.026;2022-11-14T05:02:46;4.20;99.90
31133;DHT22;17779;50.942;4.026;2022-11-14T05:05:12;4.00;99.90
31133;DHT22;17779;50.942;4.026;2022-11-14T05:07:37;3.80;99.90
31133;DHT22;17779;50.942;4.026;2022-11-14T05:10:03;3.80;99.90
31133;DHT22;17779;50.942;4.026;2022-11-14T05:12:29;3.90;99.90
31133;DHT22;17779;50.942;4.026;2022-11-14T05:14:57;4.00;99.90
31133;DHT22;17779;50.942;4.026;2022-11-14T05:17:23;4.00;99.90
31133;DHT22;17779;50.942;4.026;2022-11-14T05:19:50;4.00;99.90
31133;DHT22;17779;50.942;4.026;2022-11-14T05:22:16;4.10;99.90
31133;DHT22;17779;50.942;4.026;2022-11-14T05:24:41;4.00;99.90
31133;DHT22;17779;50.942;4.026;2022-11-14T05:27:08;4.00;99.90
31133;DHT22;17779;50.942;4.026;2022-11-14T05:29:34;3.90;99.90
31133;DHT22;17779;50.942;4.026;2022-11-14T05:32:00;3.80;99.90
31133;DHT22;17779;50.942;4.026;2022-11-14T05:34:26;3.90;99.90
31133;DHT22;17779;50.942;4.026;2022-11-14T05:36:52;3.90;99.90
31133;DHT22;17779;50.942;4.026;2022-11-14T05:39:17;3.90;99.90
31133;DHT22;17779;50.942;4.026;2022-11-14T05:41:46;3.80;99.90
31133;DHT22;17779;50.942;4.026;2022-11-14T05:44:12;4.00;99.90
31133;DHT22;17779;50.942;4.026;2022-11-14T05:46:37;4.10;99.90
31133;DHT22;17779;50.942;4.026;2022-11-14T05:49:03;4.00;99.90
31133;DHT22;17779;50.942;4.026;2022-11-14T05:51:28;4.00;99.90
31133;DHT22;17779;50.942;4.026;2022-11-14T05:53:54;4.00;99.90
31133;DHT22;17779;50.942;4.026;2022-11-14T05:56:20;4.00;99.90
31133;DHT22;17779;50.942;4.026;2022-11-14T05:58:45;4.10;99.90
31133;DHT22;17779;50.942;4.026;2022-11-14T06:01:15;4.20;99.90
31133;DHT22;17779;50.942;4.026;2022-11-14T06:03:45;4.00;99.90
31133;DHT22;17779;50.942;4.026;2022-11-14T06:06:12;4.10;99.90
31133;DHT22;17779;50.942;4.026;2022-11-14T06:08:39;3.90;99.90
31133;DHT22;17779;50.942;4.026;2022-11-14T06:11:09;3.90;99.90
31133;DHT22;17779;50.942;4.026;2022-11-14T06:13:37;3.80;99.90
31133;DHT22;17779;50.942;4.026;2022-11-14T06:16:04;3.90;99.90
31133;DHT22;17779;50.942;4.026;2022-11-14T06:18:30;4.00;99.90
31133;DHT22;17779;50.942;4.026;2022-11-14T06:20:59;4.10;99.90
31133;DHT22;17779;50.942;4.026;2022-11-14T06:23:27;4.10;99.90
31133;DHT22;17779;50.942;4.026;2022-11-14T06:25:59;4.00;99.90
31133;DHT22;17779;50.942;4.026;2022-11-14T06:28:25;4.00;99.90
31133;DHT22;17779;50.942;4.026;2022-11-14T06:31:01;4.00;99.90
31133;DHT22;17779;50.942;4.026;2022-11-14T06:33:27;4.00;99.90
31133;DHT22;17779;50.942;4.026;2022-11-14T06:36:02;4.00;99.90
31133;DHT22;17779;50.942;4.026;2022-11-14T06:38:32;4.00;99.90
31133;DHT22;17779;50.942;4.026;2022-11-14T06:41:04;4.00;99.90
31133;DHT22;17779;50.942;4.026;2022-11-14T06:43:34;3.90;99.90
31133;DHT22;17779;50.942;4.026;2022-11-14T06:46:00;3.90;99.90
31133;DHT22;17779;50.942;4.026;2022-11-14T06:48:25;3.90;99.90
31133;DHT22;17779;50.942;4.026;2022-11-14T06:50:52;3.80;99.90
31133;DHT22;17779;50.942;4.026;2022-11-14T06:53:18;3.70;99.90
31133;DHT22;17779;50.942;4.026;2022-11-14T06:55:52;3.60;99.90
31133;DHT22;17779;50.942;4.026;2022-11-14T06:58:17;3.70;99.90
31133;DHT22;17779;50.942;4.026;2022-11-14T07:00:43;4.00;99.90
31133;DHT22;17779;50.942;4.026;2022-11-14T07:03:08;3.70;99.90
31133;DHT22;17779;50.942;4.026;2022-11-14T07:05:34;3.60;99.90
31133;DHT22;17779;50.942;4.026;2022-11-14T07:07:59;3.60;99.90
31133;DHT22;17779;50.942;4.026;2022-11-14T07:10:25;3.60;99.90
31133;DHT22;17779;50.942;4.026;2022-11-14T07:12:50;3.70;99.90
31133;DHT22;17779;50.942;4.026;2022-11-14T07:15:16;3.70;99.90
31133;DHT22;17779;50.942;4.026;2022-11-14T07:17:43;3.70;99.90
31133;DHT22;17779;50.942;4.026;2022-11-14T07:20:08;3.80;99.90
31133;DHT22;17779;50.942;4.026;2022-11-14T07:22:34;3.90;99.90
31133;DHT22;17779;50.942;4.026;2022-11-14T07:27:31;3.90;99.90
31133;DHT22;17779;50.942;4.026;2022-11-14T07:29:56;3.90;99.90
31133;DHT22;17779;50.942;4.026;2022-11-14T07:32:22;3.80;99.90
31133;DHT22;17779;50.942;4.026;2022-11-14T07:34:47;3.90;99.90
31133;DHT22;17779;50.942;4.026;2022-11-14T07:37:13;3.90;99.90
31133;DHT22;17779;50.942;4.026;2022-11-14T07:39:39;4.00;99.90
31133;DHT22;17779;50.942;4.026;2022-11-14T07:42:04;4.00;99.90
31133;DHT22;17779;50.942;4.026;2022-11-14T07:44:30;4.10;99.90
31133;DHT22;17779;50.942;4.026;2022-11-14T07:46:56;4.10;99.90
31133;DHT22;17779;50.942;4.026;2022-11-14T07:49:21;4.00;99.90
31133;DHT22;17779;50.942;4.026;2022-11-14T07:51:47;4.10;99.90
31133;DHT22;17779;50.942;4.026;2022-11-14T07:54:12;4.20;99.90
31133;DHT22;17779;50.942;4.026;2022-11-14T07:56:41;4.20;99.90
31133;DHT22;17779;50.942;4.026;2022-11-14T07:59:08;4.30;99.90
31133;DHT22;17779;50.942;4.026;2022-11-14T08:01:33;4.40;99.90
31133;DHT22;17779;50.942;4.026;2022-11-14T08:03:59;4.70;99.90
31133;DHT22;17779;50.942;4.026;2022-11-14T08:06:25;5.30;99.90
31133;DHT22;17779;50.942;4.026;2022-11-14T08:08:53;6.00;99.90
31133;DHT22;17779;50.942;4.026;2022-11-14T08:11:19;6.70;99.90
31133;DHT22;17779;50.942;4.026;2022-11-14T08:14:03;7.70;99.90
31133;DHT22;17779;50.942;4.026;2022-11-14T08:16:29;9.00;99.90
31133;DHT22;17779;50.942;4.026;2022-11-14T08:18:54;9.00;99.90
31133;DHT22;17779;50.942;4.026;2022-11-14T08:21:20;9.80;99.90
31133;DHT22;17779;50.942;4.026;2022-11-14T08:23:45;10.30;99.90
31133;DHT22;17779;50.942;4.026;2022-11-14T08:26:12;11.00;99.90
31133;DHT22;17779;50.942;4.026;2022-11-14T08:28:37;10.70;99.90
31133;DHT22;17779;50.942;4.026;2022-11-14T08:31:03;11.30;99.90
31133;DHT22;17779;50.942;4.026;2022-11-14T08:33:29;11.10;99.90
31133;DHT22;17779;50.942;4.026;2022-11-14T08:36:06;11.80;99.90
31133;DHT22;17779;50.942;4.026;2022-11-14T08:38:32;10.90;99.90
31133;DHT22;17779;50.942;4.026;2022-11-14T08:40:59;11.10;99.90
31133;DHT22;17779;50.942;4.026;2022-11-14T08:43:26;10.30;99.90
31133;DHT22;17779;50.942;4.026;2022-11-14T08:45:55;10.30;99.90
31133;DHT22;17779;50.942;4.026;2022-11-14T08:48:21;9.30;99.90
31133;DHT22;17779;50.942;4.026;2022-11-14T08:50:47;9.80;99.90
31133;DHT22;17779;50.942;4.026;2022-11-14T08:53:12;9.80;99.90
31133;DHT22;17779;50.942;4.026;2022-11-14T08:55:42;9.90;99.90
31133;DHT22;17779;50.942;4.026;2022-11-14T08:58:08;10.20;99.90
31133;DHT22;17779;50.942;4.026;2022-11-14T09:00:35;10.40;99.90
31133;DHT22;17779;50.942;4.026;2022-11-14T09:03:06;10.70;99.90
31133;DHT22;17779;50.942;4.026;2022-11-14T09:05:31;11.30;99.90
31133;DHT22;17779;50.942;4.026;2022-11-14T09:07:57;12.20;99.90
31133;DHT22;17779;50.942;4.026;2022-11-14T09:10:23;11.90;99.90
31133;DHT22;17779;50.942;4.026;2022-11-14T09:12:53;12.60;99.90
31133;DHT22;17779;50.942;4.026;2022-11-14T09:15:19;12.60;99.90
31133;DHT22;17779;50.942;4.026;2022-11-14T09:17:45;12.60;99.90
31133;DHT22;17779;50.942;4.026;2022-11-14T09:20:10;12.60;99.90
31133;DHT22;17779;50.942;4.026;2022-11-14T09:22:37;12.60;99.90
31133;DHT22;17779;50.942;4.026;2022-11-14T09:25:03;13.30;99.90
31133;DHT22;17779;50.942;4.026;2022-11-14T09:27:29;12.70;99.90
31133;DHT22;17779;50.942;4.026;2022-11-14T09:29:58;14.10;99.90
31133;DHT22;17779;50.942;4.026;2022-11-14T09:32:23;14.60;99.90
31133;DHT22;17779;50.942;4.026;2022-11-14T09:34:49;15.00;99.90
31133;DHT22;17779;50.942;4.026;2022-11-14T09:37:17;15.10;99.90
31133;DHT22;17779;50.942;4.026;2022-11-14T09:39:43;14.60;99.90
31133;DHT22;17779;50.942;4.026;2022-11-14T09:44:48;15.60;99.90
31133;DHT22;17779;50.942;4.026;2022-11-14T09:47:16;15.60;99.90
31133;DHT22;17779;50.942;4.026;2022-11-14T09:54:45;14.30;99.90
31133;DHT22;17779;50.942;4.026;2022-11-14T09:57:17;13.30;99.90
31133;DHT22;17779;50.942;4.026;2022-11-14T09:59:44;13.40;99.90
31133;DHT22;17779;50.942;4.026;2022-11-14T10:05:02;13.70;99.90
31133;DHT22;17779;50.942;4.026;2022-11-14T10:07:44;13.80;99.90
31133;DHT22;17779;50.942;4.026;2022-11-14T10:12:53;13.90;99.90
31133;DHT22;17779;50.942;4.026;2022-11-14T10:15:45;13.60;99.90
31133;DHT22;17779;50.942;4.026;2022-11-14T10:20:52;13.90;99.90
31133;DHT22;17779;50.942;4.026;2022-11-14T10:23:38;13.50;99.90
31133;DHT22;17779;50.942;4.026;2022-11-14T10:42:03;12.80;99.90
31133;DHT22;17779;50.942;4.026;2022-11-14T10:44:38;11.60;99.90
31133;DHT22;17779;50.942;4.026;2022-11-14T10:47:07;10.10;99.90
31133;DHT22;17779;50.942;4.026;2022-11-14T10:49:36;8.60;99.90
31133;DHT22;17779;50.942;4.026;2022-11-14T10:52:08;8.10;99.90
31133;DHT22;17779;50.942;4.026;2022-11-14T10:54:40;7.50;99.90
31133;DHT22;17779;50.942;4.026;2022-11-14T10:57:12;7.50;99.90
31133;DHT22;17779;50.942;4.026;2022-11-14T10:59:41;7.30;99.90
31133;DHT22;17779;50.942;4.026;2022-11-14T11:02:07;7.60;99.90
31133;DHT22;17779;50.942;4.026;2022-11-14T11:04:40;7.60;99.90
31133;DHT22;17779;50.942;4.026;2022-11-14T11:09:36;6.90;99.90
31133;DHT22;17779;50.942;4.026;2022-11-14T11:12:24;6.60;99.90
31133;DHT22;17779;50.942;4.026;2022-11-14T11:20:28;6.50;99.90
31133;DHT22;17779;50.942;4.026;2022-11-14T11:25:35;6.60;99.90
31133;DHT22;17779;50.942;4.026;2022-11-14T11:28:20;6.50;99.90
31133;DHT22;17779;50.942;4.026;2022-11-14T11:30:56;6.50;99.90
31133;DHT22;17779;50.942;4.026;2022-11-14T11:33:24;6.50;99.90
31133;DHT22;17779;50.942;4.026;2022-11-14T11:35:51;6.60;99.90
31133;DHT22;17779;50.942;4.026;2022-11-14T11:38:17;6.60;99.90
31133;DHT22;17779;50.942;4.026;2022-11-14T11:40:43;6.70;99.90
31133;DHT22;17779;50.942;4.026;2022-11-14T11:45:44;6.90;99.90
31133;DHT22;17779;50.942;4.026;2022-11-14T11:48:18;6.50;99.90
31133;DHT22;17779;50.942;4.026;2022-11-14T11:50:44;6.50;99.90
31133;DHT22;17779;50.942;4.026;2022-11-14T11:55:58;6.40;99.90
31133;DHT22;17779;50.942;4.026;2022-11-14T11:58:29;6.90;99.90
31133;DHT22;17779;50.942;4.026;2022-11-14T12:00:59;6.80;99.90
31133;DHT22;17779;50.942;4.026;2022-11-14T12:03:25;6.60;99.90
31133;DHT22;17779;50.942;4.026;2022-11-14T12:11:00;6.90;99.90
31133;DHT22;17779;50.942;4.026;2022-11-14T12:28:58;6.50;99.90
31133;DHT22;17779;50.942;4.026;2022-11-14T12:31:32;6.60;99.90
31133;DHT22;17779;50.942;4.026;2022-11-14T12:34:00;6.50;99.90
31133;DHT22;17779;50.942;4.026;2022-11-14T12:36:30;6.40;99.90
31133;DHT22;17779;50.942;4.026;2022-11-14T12:38:58;6.60;99.90
31133;DHT22;17779;50.942;4.026;2022-11-14T12:41:28;6.60;99.90
31133;DHT22;17779;50.942;4.026;2022-11-14T12:54:58;6.60;99.90
31133;DHT22;17779;50.942;4.026;2022-11-14T12:57:35;6.60;99.90
31133;DHT22;17779;50.942;4.026;2022-11-14T13:00:22;6.50;99.90
31133;DHT22;17779;50.942;4.026;2022-11-14T13:05:20;6.50;99.90
31133;DHT22;17779;50.942;4.026;2022-11-14T13:07:54;6.50;99.90
31133;DHT22;17779;50.942;4.026;2022-11-14T13:10:33;6.80;99.90
31133;DHT22;17779;50.942;4.026;2022-11-14T13:15:57;6.70;99.90
31133;DHT22;17779;50.942;4.026;2022-11-14T13:19:00;6.70;99.90
31133;DHT22;17779;50.942;4.026;2022-11-14T13:27:25;6.50;99.90
31133;DHT22;17779;50.942;4.026;2022-11-14T13:33:02;6.50;99.90
31133;DHT22;17779;50.942;4.026;2022-11-14T13:35:19;6.60;99.90
31133;DHT22;17779;50.942;4.026;2022-11-14T13:40:15;6.50;99.90
31133;DHT22;17779;50.942;4.026;2022-11-14T13:50:34;6.50;99.90
31133;DHT22;17779;50.942;4.026;2022-11-14T13:53:18;6.60;99.90
31133;DHT22;17779;50.942;4.026;2022-11-14T13:55:52;6.70;99.90
31133;DHT22;17779;50.942;4.026;2022-11-14T14:04:05;6.60;99.90
31133;DHT22;17779;50.942;4.026;2022-11-14T14:17:10;6.60;99.90
31133;DHT22;17779;50.942;4.026;2022-11-14T14:19:53;6.60;99.90
31133;DHT22;17779;50.942;4.026;2022-11-14T14:24:59;6.60;99.90
31133;DHT22;17779;50.942;4.026;2022-11-14T14:30:17;6.70;99.90
31133;DHT22;17779;50.942;4.026;2022-11-14T14:33:29;6.90;99.90
31133;DHT22;17779;50.942;4.026;2022-11-14T14:35:33;7.10;99.90
31133;DHT22;17779;50.942;4.026;2022-11-14T14:38:00;7.20;99.90
31133;DHT22;17779;50.942;4.026;2022-11-14T14:40:27;7.10;99.90
31133;DHT22;17779;50.942;4.026;2022-11-14T14:42:53;6.90;99.90
31133;DHT22;17779;50.942;4.026;2022-11-14T14:45:21;7.00;99.90
31133;DHT22;17779;50.942;4.026;2022-11-14T14:47:48;6.90;99.90
31133;DHT22;17779;50.942;4.026;2022-11-14T14:50:16;6.80;99.90
31133;DHT22;17779;50.942;4.026;2022-11-14T14:52:44;7.00;99.90
31133;DHT22;17779;50.942;4.026;2022-11-14T14:55:24;7.10;99.90
31133;DHT22;17779;50.942;4.026;2022-11-14T14:57:49;6.90;99.90
31133;DHT22;17779;50.942;4.026;2022-11-14T15:00:17;6.90;99.90
31133;DHT22;17779;50.942;4.026;2022-11-14T15:02:43;6.90;99.90
31133;DHT22;17779;50.942;4.026;2022-11-14T15:05:10;7.00;99.90
31133;DHT22;17779;50.942;4.026;2022-11-14T15:07:39;7.00;99.90
31133;DHT22;17779;50.942;4.026;2022-11-14T15:10:04;6.90;99.90
31133;DHT22;17779;50.942;4.026;2022-11-14T15:12:33;6.90;99.90
31133;DHT22;17779;50.942;4.026;2022-11-14T15:14:59;6.90;99.90
31133;DHT22;17779;50.942;4.026;2022-11-14T15:17:25;6.90;99.90
31133;DHT22;17779;50.942;4.026;2022-11-14T15:19:53;6.90;99.90
31133;DHT22;17779;50.942;4.026;2022-11-14T15:27:29;6.80;99.90
31133;DHT22;17779;50.942;4.026;2022-11-14T15:29:56;6.80;99.90
31133;DHT22;17779;50.942;4.026;2022-11-14T15:32:23;6.80;99.90
31133;DHT22;17779;50.942;4.026;2022-11-14T15:37:33;7.00;99.90
31133;DHT22;17779;50.942;4.026;2022-11-14T15:40:18;7.10;99.90
31133;DHT22;17779;50.942;4.026;2022-11-14T15:42:44;7.10;99.90
31133;DHT22;17779;50.942;4.026;2022-11-14T15:45:27;7.10;99.90
31133;DHT22;17779;50.942;4.026;2022-11-14T15:48:01;7.10;99.90
31133;DHT22;17779;50.942;4.026;2022-11-14T15:50:30;7.10;99.90
31133;DHT22;17779;50.942;4.026;2022-11-14T15:53:02;7.10;99.90
31133;DHT22;17779;50.942;4.026;2022-11-14T15:55:29;6.90;99.90
31133;DHT22;17779;50.942;4.026;2022-11-14T15:57:57;7.00;99.90
31133;DHT22;17779;50.942;4.026;2022-11-14T16:00:23;7.10;99.90
31133;DHT22;17779;50.942;4.026;2022-11-14T16:07:43;7.20;99.90
31133;DHT22;17779;50.942;4.026;2022-11-14T16:10:12;7.10;99.90
31133;DHT22;17779;50.942;4.026;2022-11-14T16:12:38;7.10;99.90
31133;DHT22;17779;50.942;4.026;2022-11-14T16:15:06;7.10;99.90
31133;DHT22;17779;50.942;4.026;2022-11-14T16:17:38;7.10;99.90
31133;DHT22;17779;50.942;4.026;2022-11-14T16:20:05;7.10;99.90
31133;DHT22;17779;50.942;4.026;2022-11-14T16:22:31;7.10;99.90
31133;DHT22;17779;50.942;4.026;2022-11-14T16:24:59;7.10;99.90
31133;DHT22;17779;50.942;4.026;2022-11-14T16:27:26;7.20;99.90
31133;DHT22;17779;50.942;4.026;2022-11-14T16:29:52;7.10;99.90
31133;DHT22;17779;50.942;4.026;2022-11-14T16:32:18;7.00;99.90
31133;DHT22;17779;50.942;4.026;2022-11-14T16:34:43;7.10;99.90
31133;DHT22;17779;50.942;4.026;2022-11-14T16:37:13;7.00;99.90
31133;DHT22;17779;50.942;4.026;2022-11-14T16:39:39;7.00;99.90
31133;DHT22;17779;50.942;4.026;2022-11-14T16:42:05;7.00;99.90
31133;DHT22;17779;50.942;4.026;2022-11-14T16:44:31;7.00;99.90
31133;DHT22;17779;50.942;4.026;2022-11-14T16:46:57;7.10;99.90
31133;DHT22;17779;50.942;4.026;2022-11-14T16:49:23;7.10;99.90
31133;DHT22;17779;50.942;4.026;2022-11-14T16:51:49;7.10;99.90
31133;DHT22;17779;50.942;4.026;2022-11-14T16:54:15;7.20;99.90
31133;DHT22;17779;50.942;4.026;2022-11-14T16:56:41;7.30;99.90
31133;DHT22;17779;50.942;4.026;2022-11-14T16:59:07;7.20;99.90
31133;DHT22;17779;50.942;4.026;2022-11-14T17:01:34;7.20;99.90
31133;DHT22;17779;50.942;4.026;2022-11-14T17:04:00;7.10;99.90
31133;DHT22;17779;50.942;4.026;2022-11-14T17:08:57;7.30;99.90
31133;DHT22;17779;50.942;4.026;2022-11-14T17:11:24;7.30;99.90
31133;DHT22;17779;50.942;4.026;2022-11-14T17:13:51;7.10;99.90
31133;DHT22;17779;50.942;4.026;2022-11-14T17:16:16;7.20;99.90
31133;DHT22;17779;50.942;4.026;2022-11-14T17:18:42;7.20;99.90
31133;DHT22;17779;50.942;4.026;2022-11-14T17:21:08;7.30;99.90
31133;DHT22;17779;50.942;4.026;2022-11-14T17:23:34;7.40;99.90
31133;DHT22;17779;50.942;4.026;2022-11-14T17:26:00;7.40;99.90
31133;DHT22;17779;50.942;4.026;2022-11-14T17:28:26;7.40;99.90
31133;DHT22;17779;50.942;4.026;2022-11-14T17:30:51;7.40;99.90
31133;DHT22;17779;50.942;4.026;2022-11-14T17:33:17;7.40;99.90
31133;DHT22;17779;50.942;4.026;2022-11-14T17:35:43;7.50;99.90
31133;DHT22;17779;50.942;4.026;2022-11-14T17:38:08;7.40;99.90
31133;DHT22;17779;50.942;4.026;2022-11-14T17:40:34;7.30;99.90
31133;DHT22;17779;50.942;4.026;2022-11-14T17:42:59;7.40;99.90
31133;DHT22;17779;50.942;4.026;2022-11-14T17:45:26;7.50;99.90
31133;DHT22;17779;50.942;4.026;2022-11-14T17:47:52;7.50;99.90
31133;DHT22;17779;50.942;4.026;2022-11-14T17:50:17;7.40;99.90
31133;DHT22;17779;50.942;4.026;2022-11-14T17:52:43;7.50;99.90
31133;DHT22;17779;50.942;4.026;2022-11-14T17:55:08;7.50;99.90
31133;DHT22;17779;50.942;4.026;2022-11-14T17:57:34;7.50;99.90
31133;DHT22;17779;50.942;4.026;2022-11-14T17:59:59;7.60;99.90
31133;DHT22;17779;50.942;4.026;2022-11-14T18:02:27;7.50;99.90
31133;DHT22;17779;50.942;4.026;2022-11-14T18:04:53;7.50;99.90
31133;DHT22;17779;50.942;4.026;2022-11-14T18:07:18;7.40;99.90
31133;DHT22;17779;50.942;4.026;2022-11-14T18:09:44;7.60;99.90
31133;DHT22;17779;50.942;4.026;2022-11-14T18:12:10;7.80;99.90
31133;DHT22;17779;50.942;4.026;2022-11-14T18:14:36;7.70;99.90